Time;durP1;ratioP1;P1;durP2;ratioP2;P2;SDS_P1;SDS_P2;PMS_P1;PMS_P2;Temp;Humidity;BMP_temperature;BMP_pressure;BME280_temperature;BME280_humidity;BME280_pressure;Samples;Min_cycle;Max_cycle;Signal;HPM_P1;HPM_P2
2021/07/15 00:01:29;;;;;;;23.52;16.92;;;;;;;;;;5010280;28;20045;-57
2021/07/15 00:03:55;;;;;;;24.40;16.70;;;;;;;;;;5008698;28;20131;-56
2021/07/15 00:06:21;;;;;;;30.42;17.02;;;;;;;;;;5009846;28;20502;-56
2021/07/15 00:08:47;;;;;;;24.63;17.35;;;;;;;;;;5010469;28;22077;-54
2021/07/15 00:11:14;;;;;;;23.08;17.00;;;;;;;;;;5012823;28;20037;-57
2021/07/15 00:13:42;;;;;;;24.65;17.38;;;;;;;;;;5011771;28;20053;-59
2021/07/15 00:16:10;;;;;;;25.33;17.35;;;;;;;;;;5012552;28;20678;-56
2021/07/15 00:18:39;;;;;;;28.15;19.45;;;;;;;;;;5010647;28;20281;-59
2021/07/15 00:21:07;;;;;;;26.58;18.65;;;;;;;;;;5010843;28;20044;-56
2021/07/15 00:23:32;;;;;;;30.05;19.42;;;;;;;;;;5008620;28;20047;-56
2021/07/15 00:25:59;;;;;;;28.90;19.83;;;;;;;;;;5009977;28;20038;-56
2021/07/15 00:28:25;;;;;;;28.25;20.13;;;;;;;;;;5010284;28;20152;-57
2021/07/15 00:30:51;;;;;;;31.20;20.33;;;;;;;;;;5011387;28;20045;-57
2021/07/15 00:33:17;;;;;;;30.67;20.73;;;;;;;;;;5011095;28;20037;-56
2021/07/15 00:35:42;;;;;;;27.05;19.77;;;;;;;;;;5009580;28;20091;-55
2021/07/15 00:38:08;;;;;;;29.50;21.25;;;;;;;;;;5008788;28;20052;-56
2021/07/15 00:40:35;;;;;;;35.53;20.95;;;;;;;;;;5007563;28;20100;-57
2021/07/15 00:43:01;;;;;;;37.47;21.27;;;;;;;;;;5009839;28;20037;-56
2021/07/15 00:45:27;;;;;;;30.08;20.95;;;;;;;;;;5008739;28;20061;-57
2021/07/15 00:47:53;;;;;;;32.38;21.80;;;;;;;;;;5010270;28;20041;-57
2021/07/15 00:50:20;;;;;;;41.20;21.00;;;;;;;;;;5010735;28;20049;-57
2021/07/15 00:52:46;;;;;;;32.85;23.08;;;;;;;;;;5006452;28;20099;-57
2021/07/15 00:55:14;;;;;;;35.60;22.55;;;;;;;;;;5010933;28;20045;-56
2021/07/15 00:57:39;;;;;;;34.05;22.38;;;;;;;;;;5008860;28;20049;-57
2021/07/15 01:00:08;;;;;;;36.72;22.67;;;;;;;;;;5008692;28;20407;-57
2021/07/15 01:02:34;;;;;;;33.67;22.80;;;;;;;;;;5008340;28;21020;-57
2021/07/15 01:05:00;;;;;;;37.30;24.20;;;;;;;;;;5010096;28;20657;-56
2021/07/15 01:07:25;;;;;;;48.35;24.65;;;;;;;;;;5007957;28;20553;-56
2021/07/15 01:09:51;;;;;;;37.67;24.23;;;;;;;;;;5010146;28;20048;-57
2021/07/15 01:12:36;;;;;;;39.50;24.73;;;;;;;;;;5009728;28;20089;-56
2021/07/15 01:15:05;;;;;;;36.72;25.13;;;;;;;;;;5009348;28;20114;-57
2021/07/15 01:17:34;;;;;;;39.92;24.55;;;;;;;;;;5008801;28;20038;-58
2021/07/15 01:20:32;;;;;;;39.78;25.38;;;;;;;;;;5008195;28;20167;-57
2021/07/15 01:23:11;;;;;;;37.67;25.50;;;;;;;;;;4994240;28;20052;-57
2021/07/15 01:25:45;;;;;;;42.95;25.67;;;;;;;;;;5008628;28;20041;-57
2021/07/15 01:28:17;;;;;;;37.95;25.80;;;;;;;;;;5007905;28;20709;-57
2021/07/15 01:30:44;;;;;;;40.03;26.40;;;;;;;;;;5009629;28;20054;-57
2021/07/15 01:33:42;;;;;;;39.05;26.27;;;;;;;;;;5008504;28;20407;-58
2021/07/15 01:36:13;;;;;;;41.47;24.83;;;;;;;;;;4975761;28;20084;-58
2021/07/15 01:38:42;;;;;;;35.13;24.97;;;;;;;;;;5009556;28;20741;-59
2021/07/15 01:41:18;;;;;;;45.75;26.05;;;;;;;;;;5008803;28;20059;-58
2021/07/15 01:43:51;;;;;;;38.38;25.42;;;;;;;;;;5008627;28;20189;-57
2021/07/15 01:46:17;;;;;;;38.55;25.42;;;;;;;;;;5008677;28;20549;-58
2021/07/15 01:48:45;;;;;;;42.47;24.38;;;;;;;;;;5008820;28;20046;-58
2021/07/15 01:51:11;;;;;;;36.45;24.58;;;;;;;;;;5009522;28;20046;-57
2021/07/15 01:53:38;;;;;;;39.15;24.48;;;;;;;;;;5009121;28;20060;-58
2021/07/15 01:56:04;;;;;;;37.30;24.67;;;;;;;;;;5009686;28;20037;-58
2021/07/15 01:58:31;;;;;;;38.17;25.13;;;;;;;;;;5009023;28;20061;-58
2021/07/15 02:00:58;;;;;;;35.63;25.20;;;;;;;;;;5009199;28;20052;-58
2021/07/15 02:03:25;;;;;;;39.83;24.65;;;;;;;;;;5009492;28;20075;-58
2021/07/15 02:05:51;;;;;;;39.08;23.92;;;;;;;;;;5010926;28;20053;-57
2021/07/15 02:08:17;;;;;;;33.35;24.25;;;;;;;;;;5011692;28;20049;-59
2021/07/15 02:10:43;;;;;;;45.72;27.60;;;;;;;;;;5010111;28;20085;-59
2021/07/15 02:13:10;;;;;;;35.95;23.95;;;;;;;;;;5011747;28;20055;-58
2021/07/15 02:15:37;;;;;;;42.67;25.13;;;;;;;;;;5009665;28;20124;-59
2021/07/15 02:18:03;;;;;;;41.05;25.02;;;;;;;;;;5009914;28;20034;-58
2021/07/15 02:20:30;;;;;;;44.20;25.65;;;;;;;;;;5010386;28;20129;-60
2021/07/15 02:22:56;;;;;;;71.00;34.78;;;;;;;;;;5009756;28;20045;-59
2021/07/15 02:25:23;;;;;;;89.00;33.22;;;;;;;;;;5009002;28;20038;-58
2021/07/15 02:27:50;;;;;;;44.42;26.92;;;;;;;;;;5009181;28;20983;-59
2021/07/15 02:30:16;;;;;;;47.33;26.27;;;;;;;;;;5009386;28;20033;-60
2021/07/15 02:32:56;;;;;;;43.17;26.75;;;;;;;;;;5009947;28;20065;-57
2021/07/15 02:35:23;;;;;;;63.33;29.35;;;;;;;;;;5010019;28;20049;-58
2021/07/15 02:37:51;;;;;;;80.45;32.90;;;;;;;;;;5007951;28;20095;-56
2021/07/15 02:40:17;;;;;;;91.28;36.75;;;;;;;;;;5007628;28;20157;-57
2021/07/15 02:42:44;;;;;;;49.83;26.85;;;;;;;;;;5007706;28;20581;-58
2021/07/15 02:45:11;;;;;;;42.70;26.27;;;;;;;;;;5008011;28;20037;-58
2021/07/15 02:47:39;;;;;;;37.28;25.25;;;;;;;;;;5006217;28;20054;-57
2021/07/15 02:50:06;;;;;;;43.03;26.52;;;;;;;;;;5008406;28;20030;-57
2021/07/15 02:52:31;;;;;;;46.28;28.25;;;;;;;;;;5007684;28;20057;-57
2021/07/15 02:54:57;;;;;;;39.50;26.92;;;;;;;;;;5023391;28;20037;-57
2021/07/15 02:57:26;;;;;;;41.28;27.10;;;;;;;;;;5007300;28;20128;-55
2021/07/15 03:00:01;;;;;;;52.05;29.70;;;;;;;;;;5009608;28;20506;-53
2021/07/15 03:02:31;;;;;;;41.40;27.20;;;;;;;;;;5007858;28;20041;-56
2021/07/15 03:05:05;;;;;;;40.45;27.73;;;;;;;;;;5009214;28;20069;-55
2021/07/15 03:07:32;;;;;;;42.53;26.33;;;;;;;;;;5007055;28;20045;-56
2021/07/15 03:09:58;;;;;;;49.55;26.80;;;;;;;;;;5009671;28;20089;-55
2021/07/15 03:12:24;;;;;;;47.90;27.65;;;;;;;;;;5009395;28;20049;-55
2021/07/15 03:14:54;;;;;;;46.22;29.08;;;;;;;;;;5009190;28;20106;-55
2021/07/15 03:17:24;;;;;;;43.50;27.83;;;;;;;;;;5008689;28;20770;-55
2021/07/15 03:19:51;;;;;;;49.75;27.50;;;;;;;;;;5008724;28;20029;-53
2021/07/15 03:22:17;;;;;;;45.63;28.75;;;;;;;;;;5007531;28;20041;-56
2021/07/15 03:25:12;;;;;;;39.42;27.42;;;;;;;;;;5009493;28;20045;-56
2021/07/15 03:27:43;;;;;;;51.40;28.70;;;;;;;;;;4996730;28;20052;-54
2021/07/15 03:30:10;;;;;;;45.50;26.75;;;;;;;;;;5011573;28;20549;-56
2021/07/15 03:32:37;;;;;;;44.33;27.13;;;;;;;;;;5010792;28;20108;-55
2021/07/15 03:35:04;;;;;;;42.65;27.30;;;;;;;;;;5011375;28;20041;-57
2021/07/15 03:37:30;;;;;;;45.42;28.17;;;;;;;;;;5002707;28;20030;-57
2021/07/15 03:39:56;;;;;;;46.45;28.52;;;;;;;;;;5011720;28;20053;-57
2021/07/15 03:42:22;;;;;;;47.85;28.63;;;;;;;;;;5010111;28;20774;-56
2021/07/15 03:44:48;;;;;;;44.58;27.58;;;;;;;;;;5012326;28;20463;-56
2021/07/15 03:47:14;;;;;;;45.33;27.73;;;;;;;;;;5012044;28;20041;-56
2021/07/15 03:49:42;;;;;;;40.08;26.23;;;;;;;;;;5009823;28;20040;-56
2021/07/15 03:52:14;;;;;;;46.38;28.38;;;;;;;;;;5011970;28;20042;-55
2021/07/15 03:54:41;;;;;;;47.58;28.67;;;;;;;;;;5009471;28;20052;-54
2021/07/15 03:57:11;;;;;;;48.45;26.90;;;;;;;;;;5009056;28;20047;-57
2021/07/15 03:59:39;;;;;;;49.22;28.13;;;;;;;;;;5011510;28;20035;-57
2021/07/15 04:02:06;;;;;;;50.47;28.60;;;;;;;;;;5011395;28;20066;-57
2021/07/15 04:04:33;;;;;;;44.47;27.75;;;;;;;;;;5010701;28;20038;-55
2021/07/15 04:07:00;;;;;;;47.15;29.38;;;;;;;;;;5011701;28;20038;-56
2021/07/15 04:09:27;;;;;;;47.47;27.67;;;;;;;;;;5008673;28;20109;-57
2021/07/15 04:11:54;;;;;;;44.58;28.65;;;;;;;;;;5010958;28;20045;-56
2021/07/15 04:14:40;;;;;;;40.97;27.17;;;;;;;;;;5008439;28;20049;-57
2021/07/15 04:17:07;;;;;;;43.95;27.58;;;;;;;;;;5010848;28;20050;-56
2021/07/15 04:19:34;;;;;;;51.85;29.15;;;;;;;;;;5010934;28;20560;-57
2021/07/15 04:22:02;;;;;;;48.17;28.73;;;;;;;;;;5010227;28;20323;-56
2021/07/15 04:24:28;;;;;;;43.50;28.00;;;;;;;;;;5012086;28;20042;-56
2021/07/15 04:26:55;;;;;;;42.33;27.85;;;;;;;;;;5010098;28;20064;-55
2021/07/15 04:29:21;;;;;;;46.97;27.35;;;;;;;;;;5009938;28;20121;-53
2021/07/15 04:31:50;;;;;;;43.80;28.33;;;;;;;;;;5010146;28;20137;-56
2021/07/15 04:34:16;;;;;;;40.42;25.67;;;;;;;;;;5009247;28;20057;-57
2021/07/15 04:36:43;;;;;;;49.20;25.52;;;;;;;;;;5008489;28;20034;-56
2021/07/15 04:39:10;;;;;;;48.70;27.85;;;;;;;;;;5009869;28;20045;-55
2021/07/15 04:41:36;;;;;;;44.45;27.73;;;;;;;;;;5011349;28;20046;-55
2021/07/15 04:44:02;;;;;;;48.22;26.67;;;;;;;;;;5011526;28;20091;-53
2021/07/15 04:46:28;;;;;;;45.17;26.88;;;;;;;;;;5009664;28;20128;-54
2021/07/15 04:48:54;;;;;;;49.65;27.13;;;;;;;;;;5009047;28;20038;-56
2021/07/15 04:51:20;;;;;;;45.90;28.40;;;;;;;;;;5008489;28;20049;-57
2021/07/15 04:53:49;;;;;;;45.03;26.33;;;;;;;;;;5012605;28;20049;-57
2021/07/15 04:56:15;;;;;;;51.88;27.63;;;;;;;;;;5010235;28;20080;-57
2021/07/15 04:58:41;;;;;;;38.80;25.70;;;;;;;;;;5010033;28;20041;-57
2021/07/15 05:01:08;;;;;;;40.88;25.85;;;;;;;;;;5011074;28;20068;-57
2021/07/15 05:03:35;;;;;;;45.90;27.90;;;;;;;;;;5012938;28;20043;-54
2021/07/15 05:06:02;;;;;;;42.25;26.67;;;;;;;;;;5011590;28;20125;-54
2021/07/15 05:08:28;;;;;;;45.05;27.40;;;;;;;;;;5011254;28;20157;-56
2021/07/15 05:10:54;;;;;;;43.30;25.33;;;;;;;;;;5008881;28;20084;-55
2021/07/15 05:13:19;;;;;;;43.75;27.95;;;;;;;;;;5008706;28;20045;-55
2021/07/15 05:15:49;;;;;;;47.85;26.50;;;;;;;;;;5011352;28;20030;-53
2021/07/15 05:18:15;;;;;;;47.55;26.98;;;;;;;;;;5008800;28;20068;-52
2021/07/15 05:20:40;;;;;;;48.33;27.55;;;;;;;;;;5009415;28;20455;-53
2021/07/15 05:23:06;;;;;;;44.67;27.63;;;;;;;;;;5009235;28;20041;-54
2021/07/15 05:25:32;;;;;;;41.85;26.23;;;;;;;;;;5009779;28;20058;-52
2021/07/15 05:27:58;;;;;;;45.85;26.52;;;;;;;;;;5010536;28;20570;-54
2021/07/15 05:30:24;;;;;;;44.30;26.80;;;;;;;;;;5010413;28;21940;-53
2021/07/15 05:32:49;;;;;;;46.58;27.58;;;;;;;;;;5008640;28;20049;-55
2021/07/15 05:35:15;;;;;;;44.90;25.40;;;;;;;;;;5012419;28;20075;-55
2021/07/15 05:37:42;;;;;;;47.28;26.05;;;;;;;;;;5007629;28;20068;-55
2021/07/15 05:40:08;;;;;;;43.17;27.05;;;;;;;;;;5007975;28;20046;-55
2021/07/15 05:42:34;;;;;;;42.67;24.95;;;;;;;;;;5009517;28;20055;-52
2021/07/15 05:44:59;;;;;;;45.95;25.42;;;;;;;;;;5006450;28;20030;-53
2021/07/15 05:47:25;;;;;;;47.60;26.15;;;;;;;;;;5008368;28;20543;-55
2021/07/15 05:49:51;;;;;;;45.72;26.95;;;;;;;;;;5008078;28;20041;-54
2021/07/15 05:52:17;;;;;;;47.67;25.90;;;;;;;;;;5010114;28;20096;-55
2021/07/15 05:54:43;;;;;;;48.83;26.98;;;;;;;;;;5008605;28;20057;-54
2021/07/15 05:57:08;;;;;;;47.75;25.85;;;;;;;;;;5007840;28;20057;-55
2021/07/15 05:59:34;;;;;;;45.47;26.10;;;;;;;;;;5008053;28;20122;-52
2021/07/15 06:02:01;;;;;;;43.97;25.90;;;;;;;;;;5012289;28;20038;-55
2021/07/15 06:04:26;;;;;;;46.30;26.23;;;;;;;;;;5010899;28;20041;-55
2021/07/15 06:06:52;;;;;;;45.00;26.85;;;;;;;;;;5009155;28;20041;-52
2021/07/15 06:09:18;;;;;;;43.13;25.25;;;;;;;;;;5010498;28;20030;-52
2021/07/15 06:11:44;;;;;;;41.45;24.65;;;;;;;;;;5010076;28;20525;-53
2021/07/15 06:14:10;;;;;;;47.28;26.80;;;;;;;;;;5009309;28;20049;-54
2021/07/15 06:16:36;;;;;;;45.10;26.88;;;;;;;;;;5007696;28;20156;-53
2021/07/15 06:19:02;;;;;;;56.17;28.08;;;;;;;;;;5011491;28;20034;-55
2021/07/15 06:21:28;;;;;;;46.08;26.75;;;;;;;;;;5009960;28;20878;-52
2021/07/15 06:23:54;;;;;;;48.17;25.75;;;;;;;;;;5010936;28;20049;-55
2021/07/15 06:26:20;;;;;;;50.63;27.63;;;;;;;;;;5006887;28;20042;-53
2021/07/15 06:28:46;;;;;;;45.85;26.75;;;;;;;;;;5010296;28;20045;-53
2021/07/15 06:31:11;;;;;;;47.92;26.83;;;;;;;;;;5010009;28;20084;-52
2021/07/15 06:33:38;;;;;;;44.03;27.48;;;;;;;;;;5011356;28;20045;-52
2021/07/15 06:36:06;;;;;;;43.25;25.00;;;;;;;;;;5010959;28;20601;-51
2021/07/15 06:38:33;;;;;;;48.55;26.77;;;;;;;;;;5008008;28;20073;-51
2021/07/15 06:41:01;;;;;;;45.47;26.38;;;;;;;;;;5010303;28;20057;-52
2021/07/15 06:43:26;;;;;;;47.55;28.02;;;;;;;;;;5007905;28;20836;-50
2021/07/15 06:45:53;;;;;;;46.88;26.95;;;;;;;;;;5008508;28;20099;-51
2021/07/15 06:48:19;;;;;;;45.53;26.45;;;;;;;;;;5008499;28;20506;-50
2021/07/15 06:50:44;;;;;;;49.90;28.27;;;;;;;;;;5010430;28;20042;-50
2021/07/15 06:53:10;;;;;;;47.95;26.92;;;;;;;;;;5024926;28;20056;-50
2021/07/15 06:55:36;;;;;;;48.50;27.80;;;;;;;;;;5009879;28;20075;-54
2021/07/15 06:58:02;;;;;;;48.22;27.17;;;;;;;;;;5008652;28;20046;-55
2021/07/15 07:00:28;;;;;;;50.53;27.52;;;;;;;;;;5010007;28;20455;-51
2021/07/15 07:02:53;;;;;;;42.53;25.90;;;;;;;;;;5013091;28;20033;-51
2021/07/15 07:05:19;;;;;;;47.58;27.27;;;;;;;;;;5012725;28;20033;-51
2021/07/15 07:07:46;;;;;;;45.13;26.13;;;;;;;;;;5012377;28;20080;-53
2021/07/15 07:10:12;;;;;;;54.38;27.58;;;;;;;;;;5013455;28;20171;-51
2021/07/15 07:12:39;;;;;;;43.00;26.00;;;;;;;;;;5011839;28;20044;-52
2021/07/15 07:15:06;;;;;;;48.63;27.20;;;;;;;;;;5014507;28;20092;-52
2021/07/15 07:17:32;;;;;;;45.45;26.42;;;;;;;;;;5010472;28;20036;-53
2021/07/15 07:19:58;;;;;;;48.53;27.52;;;;;;;;;;5013423;28;20045;-55
2021/07/15 07:22:23;;;;;;;50.42;28.50;;;;;;;;;;5011091;28;20614;-52
2021/07/15 07:24:49;;;;;;;49.20;26.98;;;;;;;;;;5011907;28;20048;-53
2021/07/15 07:27:15;;;;;;;47.60;26.83;;;;;;;;;;5011154;28;20041;-52
2021/07/15 07:29:41;;;;;;;46.95;27.83;;;;;;;;;;5011745;28;20117;-52
2021/07/15 07:32:07;;;;;;;47.10;27.90;;;;;;;;;;5012825;28;20042;-53
2021/07/15 07:34:33;;;;;;;42.75;26.48;;;;;;;;;;5012903;28;20556;-53
2021/07/15 07:36:59;;;;;;;46.92;26.02;;;;;;;;;;5012326;28;20038;-51
2021/07/15 07:39:24;;;;;;;46.10;26.30;;;;;;;;;;5012827;28;20099;-52
2021/07/15 07:41:50;;;;;;;43.28;24.83;;;;;;;;;;5012560;28;20042;-53
2021/07/15 07:44:16;;;;;;;46.08;25.70;;;;;;;;;;5009290;28;20602;-54
2021/07/15 07:46:42;;;;;;;43.90;26.25;;;;;;;;;;5018725;28;20026;-55
2021/07/15 07:49:08;;;;;;;46.15;26.88;;;;;;;;;;5011114;28;20034;-53
2021/07/15 07:51:34;;;;;;;60.80;26.30;;;;;;;;;;5012182;28;20026;-54
2021/07/15 07:54:00;;;;;;;45.88;27.23;;;;;;;;;;5014154;28;20045;-52
2021/07/15 07:56:26;;;;;;;45.90;25.77;;;;;;;;;;5011375;28;20044;-51
2021/07/15 07:58:52;;;;;;;45.47;26.23;;;;;;;;;;5013348;28;20779;-52
2021/07/15 08:01:18;;;;;;;50.33;27.38;;;;;;;;;;5010527;28;20048;-52
2021/07/15 08:03:44;;;;;;;47.10;26.35;;;;;;;;;;5012270;28;20049;-51
2021/07/15 08:06:10;;;;;;;47.22;26.73;;;;;;;;;;5011393;28;20038;-53
2021/07/15 08:08:38;;;;;;;48.97;27.05;;;;;;;;;;5011299;28;20132;-54
2021/07/15 08:11:04;;;;;;;46.13;27.27;;;;;;;;;;5010535;28;20042;-51
2021/07/15 08:13:30;;;;;;;43.97;25.55;;;;;;;;;;5012722;28;20402;-53
2021/07/15 08:15:56;;;;;;;47.30;25.63;;;;;;;;;;5013748;28;20041;-52
2021/07/15 08:18:23;;;;;;;49.85;26.80;;;;;;;;;;5009853;28;20034;-52
2021/07/15 08:20:49;;;;;;;48.20;26.90;;;;;;;;;;5012136;28;20042;-51
2021/07/15 08:23:15;;;;;;;49.63;27.70;;;;;;;;;;5011965;28;20045;-54
2021/07/15 08:25:41;;;;;;;47.85;27.45;;;;;;;;;;5009979;28;20100;-51
2021/07/15 08:28:07;;;;;;;51.85;28.67;;;;;;;;;;5010687;28;20483;-52
2021/07/15 08:30:33;;;;;;;47.50;26.77;;;;;;;;;;5006248;28;20059;-53
2021/07/15 08:32:59;;;;;;;46.45;26.83;;;;;;;;;;5012928;28;20080;-55
2021/07/15 08:35:27;;;;;;;45.08;27.08;;;;;;;;;;5012279;28;20520;-50
2021/07/15 08:37:53;;;;;;;47.67;27.10;;;;;;;;;;5013075;28;20117;-51
2021/07/15 08:40:19;;;;;;;49.05;27.08;;;;;;;;;;5010934;28;22079;-54
2021/07/15 08:42:45;;;;;;;46.90;26.75;;;;;;;;;;5007433;28;20125;-53
2021/07/15 08:45:11;;;;;;;44.65;25.48;;;;;;;;;;5012122;28;20578;-52
2021/07/15 08:47:41;;;;;;;48.25;27.48;;;;;;;;;;5012068;28;20040;-54
2021/07/15 08:50:07;;;;;;;41.38;25.95;;;;;;;;;;5011907;28;20037;-53
2021/07/15 08:52:37;;;;;;;46.45;25.42;;;;;;;;;;5011730;28;20040;-52
2021/07/15 08:57:36;;;;;;;45.03;27.05;;;;;;;;;;5008354;28;20353;-54
2021/07/15 09:00:04;;;;;;;51.17;26.73;;;;;;;;;;5011165;28;20052;-53
2021/07/15 09:02:30;;;;;;;48.20;26.33;;;;;;;;;;5010422;28;20808;-52
2021/07/15 09:04:56;;;;;;;43.08;25.00;;;;;;;;;;5010830;28;20066;-54
2021/07/15 09:07:23;;;;;;;51.05;26.13;;;;;;;;;;5010194;28;20038;-54
2021/07/15 09:09:49;;;;;;;48.88;26.58;;;;;;;;;;5009892;28;20494;-53
2021/07/15 09:12:16;;;;;;;48.95;26.40;;;;;;;;;;5011213;28;20056;-54
2021/07/15 09:14:53;;;;;;;49.05;26.25;;;;;;;;;;5009774;28;20424;-51
2021/07/15 09:17:31;;;;;;;46.50;27.15;;;;;;;;;;5008328;28;20038;-51
2021/07/15 09:19:58;;;;;;;46.83;26.42;;;;;;;;;;5007711;28;20501;-51
2021/07/15 09:22:23;;;;;;;46.65;26.30;;;;;;;;;;5009176;28;20096;-51
2021/07/15 09:24:51;;;;;;;51.22;27.13;;;;;;;;;;5010013;28;20189;-52
2021/07/15 09:27:24;;;;;;;62.25;29.25;;;;;;;;;;5009302;28;20228;-54
2021/07/15 09:30:06;;;;;;;46.33;26.10;;;;;;;;;;5011990;28;20075;-54
2021/07/15 09:32:32;;;;;;;48.08;27.67;;;;;;;;;;5008834;28;20053;-53
2021/07/15 09:35:05;;;;;;;54.13;29.40;;;;;;;;;;5011777;28;20100;-54
2021/07/15 09:37:34;;;;;;;56.78;27.60;;;;;;;;;;5008533;28;20041;-50
2021/07/15 09:40:00;;;;;;;50.25;28.80;;;;;;;;;;5010083;28;20095;-51
2021/07/15 09:42:26;;;;;;;50.75;28.90;;;;;;;;;;5010349;28;20038;-52
2021/07/15 09:44:53;;;;;;;55.53;29.15;;;;;;;;;;5009499;28;20049;-53
2021/07/15 09:47:31;;;;;;;49.40;28.42;;;;;;;;;;5007211;28;20623;-52
2021/07/15 09:49:57;;;;;;;48.92;28.40;;;;;;;;;;5027152;28;20402;-53
2021/07/15 09:52:23;;;;;;;51.45;28.02;;;;;;;;;;5011127;28;20048;-53
2021/07/15 09:54:49;;;;;;;47.58;26.52;;;;;;;;;;5011060;28;20095;-52
2021/07/15 09:57:25;;;;;;;51.63;28.08;;;;;;;;;;5009015;28;20928;-51
2021/07/15 09:59:51;;;;;;;51.38;27.75;;;;;;;;;;5009033;28;20045;-52
2021/07/15 10:02:27;;;;;;;45.72;26.50;;;;;;;;;;5011228;28;20051;-51
2021/07/15 10:04:53;;;;;;;50.38;27.35;;;;;;;;;;5010426;28;20041;-51
2021/07/15 10:07:23;;;;;;;51.22;26.55;;;;;;;;;;5008132;28;20045;-58
2021/07/15 10:09:48;;;;;;;46.60;25.25;;;;;;;;;;5008974;28;20040;-54
2021/07/15 10:12:24;;;;;;;47.10;25.85;;;;;;;;;;5009568;28;20049;-53
2021/07/15 10:14:50;;;;;;;46.58;26.05;;;;;;;;;;5007907;28;20045;-52
2021/07/15 10:17:16;;;;;;;45.72;26.63;;;;;;;;;;5007625;28;20068;-51
2021/07/15 10:19:43;;;;;;;44.35;24.80;;;;;;;;;;5008099;28;20049;-53
2021/07/15 10:22:10;;;;;;;46.45;25.42;;;;;;;;;;5010016;28;20064;-54
2021/07/15 10:24:37;;;;;;;57.88;26.92;;;;;;;;;;5009266;28;20316;-54
2021/07/15 10:27:04;;;;;;;48.38;25.50;;;;;;;;;;5016511;28;20053;-52
2021/07/15 10:29:31;;;;;;;44.70;25.33;;;;;;;;;;5008446;28;20120;-51
2021/07/15 10:31:57;;;;;;;46.78;25.52;;;;;;;;;;5009165;28;20030;-53
2021/07/15 10:34:24;;;;;;;47.20;25.90;;;;;;;;;;5009511;28;20360;-53
2021/07/15 10:36:54;;;;;;;44.42;25.85;;;;;;;;;;5012032;28;20086;-53
2021/07/15 10:39:22;;;;;;;49.30;26.67;;;;;;;;;;5012745;28;20073;-53
2021/07/15 10:41:50;;;;;;;53.28;26.40;;;;;;;;;;5013453;28;20050;-52
2021/07/15 10:44:17;;;;;;;45.45;25.00;;;;;;;;;;5012371;28;20559;-54
2021/07/15 10:46:43;;;;;;;45.22;25.15;;;;;;;;;;5011175;28;20033;-52
2021/07/15 10:49:09;;;;;;;54.28;26.90;;;;;;;;;;5012815;28;20034;-54
2021/07/15 10:51:36;;;;;;;51.67;26.25;;;;;;;;;;5012321;28;20557;-51
2021/07/15 10:54:02;;;;;;;49.45;26.08;;;;;;;;;;5013374;28;20052;-53
2021/07/15 10:56:28;;;;;;;47.63;25.08;;;;;;;;;;5013101;28;20125;-52
2021/07/15 10:58:54;;;;;;;43.10;24.92;;;;;;;;;;5012745;28;20046;-53
2021/07/15 11:01:36;;;;;;;47.70;24.45;;;;;;;;;;5011358;28;20690;-52
2021/07/15 11:04:16;;;;;;;42.00;25.30;;;;;;;;;;5012537;28;20045;-53
2021/07/15 11:06:43;;;;;;;47.85;26.55;;;;;;;;;;5012513;28;20049;-52
2021/07/15 11:09:11;;;;;;;49.75;25.35;;;;;;;;;;5012912;28;20120;-52
2021/07/15 11:11:36;;;;;;;44.03;24.35;;;;;;;;;;5014465;28;20042;-53
2021/07/15 11:14:03;;;;;;;54.72;25.02;;;;;;;;;;5013714;28;20112;-51
2021/07/15 11:16:51;;;;;;;50.08;26.42;;;;;;;;;;5011453;28;20497;-52
2021/07/15 11:19:35;;;;;;;49.08;26.35;;;;;;;;;;5011894;28;20453;-51
2021/07/15 11:22:02;;;;;;;48.20;26.67;;;;;;;;;;5013856;28;20510;-55
2021/07/15 11:24:28;;;;;;;45.45;24.58;;;;;;;;;;5013677;28;20704;-53
2021/07/15 11:26:54;;;;;;;52.72;25.15;;;;;;;;;;5012178;28;20045;-52
2021/07/15 11:29:39;;;;;;;44.90;25.65;;;;;;;;;;5012304;28;20080;-55
2021/07/15 11:32:23;;;;;;;50.38;26.45;;;;;;;;;;5012737;28;20038;-54
2021/07/15 11:34:52;;;;;;;45.38;25.73;;;;;;;;;;5010724;28;20068;-52
2021/07/15 11:37:32;;;;;;;46.45;24.35;;;;;;;;;;5011860;28;20069;-55
2021/07/15 11:39:59;;;;;;;47.13;24.42;;;;;;;;;;5010710;28;20136;-55
2021/07/15 11:42:26;;;;;;;44.00;25.20;;;;;;;;;;5011954;28;20029;-52
2021/07/15 11:45:00;;;;;;;52.95;25.73;;;;;;;;;;5011784;28;20140;-52
2021/07/15 11:47:53;;;;;;;47.13;25.33;;;;;;;;;;5008533;28;20048;-54
2021/07/15 11:50:49;;;;;;;48.63;24.00;;;;;;;;;;5009783;28;20129;-52
2021/07/15 11:53:22;;;;;;;47.95;24.92;;;;;;;;;;5006484;28;20053;-54
2021/07/15 11:55:49;;;;;;;48.83;26.50;;;;;;;;;;5011660;28;20080;-52
2021/07/15 11:58:33;;;;;;;54.70;26.30;;;;;;;;;;5012651;28;20070;-52
2021/07/15 12:01:16;;;;;;;49.97;25.70;;;;;;;;;;5012120;28;20038;-53
2021/07/15 12:04:00;;;;;;;58.20;28.05;;;;;;;;;;5011516;28;20045;-55
2021/07/15 12:06:26;;;;;;;48.85;26.95;;;;;;;;;;5011359;28;20046;-53
2021/07/15 12:08:52;;;;;;;53.85;27.20;;;;;;;;;;5013273;28;20041;-54
2021/07/15 12:11:21;;;;;;;54.33;27.58;;;;;;;;;;5014619;28;20764;-52
2021/07/15 12:13:52;;;;;;;52.40;27.75;;;;;;;;;;5012937;28;20061;-52
2021/07/15 12:16:19;;;;;;;51.15;27.10;;;;;;;;;;5010988;28;21931;-55
2021/07/15 12:18:46;;;;;;;46.17;25.67;;;;;;;;;;5011605;28;20494;-55
2021/07/15 12:21:12;;;;;;;50.28;28.63;;;;;;;;;;5013229;28;20050;-55
2021/07/15 12:23:40;;;;;;;49.85;27.08;;;;;;;;;;5008983;28;20045;-55
2021/07/15 12:26:07;;;;;;;54.53;26.58;;;;;;;;;;5011163;28;20112;-51
2021/07/15 12:28:32;;;;;;;48.63;27.80;;;;;;;;;;5010668;28;20042;-55
2021/07/15 12:30:59;;;;;;;54.67;28.13;;;;;;;;;;5012053;28;20096;-52
2021/07/15 12:33:36;;;;;;;60.38;31.17;;;;;;;;;;5011497;28;20406;-55
2021/07/15 12:36:07;;;;;;;56.13;28.35;;;;;;;;;;5009763;28;20049;-54
2021/07/15 12:38:33;;;;;;;53.10;28.17;;;;;;;;;;5011761;28;20072;-52
2021/07/15 12:41:08;;;;;;;55.95;27.50;;;;;;;;;;5011904;28;20057;-55
2021/07/15 12:43:39;;;;;;;56.03;28.13;;;;;;;;;;5012380;28;20124;-52
2021/07/15 12:46:09;;;;;;;49.53;27.60;;;;;;;;;;5009434;28;20537;-56
2021/07/15 12:48:39;;;;;;;53.92;28.95;;;;;;;;;;5009452;28;20778;-52
2021/07/15 12:51:05;;;;;;;60.92;30.30;;;;;;;;;;5025440;28;20068;-54
2021/07/15 12:53:36;;;;;;;57.15;29.98;;;;;;;;;;5007775;28;20053;-52
2021/07/15 12:56:02;;;;;;;53.72;30.35;;;;;;;;;;5010573;28;20164;-53
2021/07/15 12:58:28;;;;;;;50.05;29.60;;;;;;;;;;5009875;28;20049;-52
2021/07/15 13:00:59;;;;;;;54.47;30.50;;;;;;;;;;5009494;28;20044;-55
2021/07/15 13:03:25;;;;;;;51.25;28.92;;;;;;;;;;5008835;28;20052;-55
2021/07/15 13:05:51;;;;;;;51.15;27.90;;;;;;;;;;5014970;28;20049;-52
2021/07/15 13:08:23;;;;;;;51.15;29.20;;;;;;;;;;5011441;28;20113;-52
2021/07/15 13:16:18;;;;;;;48.58;27.27;;;;;;;;;;5008668;28;20251;-53
2021/07/15 13:18:44;;;;;;;50.42;27.13;;;;;;;;;;5008905;28;20116;-56
2021/07/15 13:21:10;;;;;;;45.42;26.65;;;;;;;;;;5009393;28;20084;-52
2021/07/15 13:23:40;;;;;;;46.42;27.05;;;;;;;;;;5008666;28;20033;-52
2021/07/15 13:26:13;;;;;;;53.22;28.63;;;;;;;;;;5010161;28;20450;-53
2021/07/15 13:28:39;;;;;;;45.85;27.65;;;;;;;;;;5010089;28;20038;-52
2021/07/15 13:31:15;;;;;;;50.92;27.88;;;;;;;;;;5009897;28;20622;-53
2021/07/15 13:33:42;;;;;;;50.70;26.95;;;;;;;;;;5007801;28;20053;-55
2021/07/15 13:36:08;;;;;;;47.97;27.35;;;;;;;;;;5009481;28;20049;-56
2021/07/15 13:38:41;;;;;;;46.00;26.75;;;;;;;;;;5009950;28;20099;-53
2021/07/15 13:41:20;;;;;;;46.72;28.27;;;;;;;;;;5008571;28;20132;-54
2021/07/15 13:43:46;;;;;;;45.97;27.13;;;;;;;;;;5008893;28;20037;-53
2021/07/15 13:46:17;;;;;;;50.67;27.75;;;;;;;;;;5009285;28;20049;-52
2021/07/15 13:48:44;;;;;;;52.85;29.65;;;;;;;;;;5009213;28;20068;-54
2021/07/15 13:51:12;;;;;;;54.20;28.02;;;;;;;;;;5008976;28;20052;-54
2021/07/15 13:53:42;;;;;;;48.42;27.67;;;;;;;;;;5010481;28;20168;-54
2021/07/15 13:56:08;;;;;;;43.05;25.90;;;;;;;;;;5011090;28;20038;-53
2021/07/15 13:58:34;;;;;;;46.97;27.17;;;;;;;;;;5007983;28;20040;-54
2021/07/15 14:01:01;;;;;;;52.88;26.67;;;;;;;;;;5011457;28;20441;-52
2021/07/15 14:03:27;;;;;;;45.60;25.13;;;;;;;;;;5007856;28;20034;-53
2021/07/15 14:05:54;;;;;;;43.67;24.50;;;;;;;;;;5008008;28;20033;-54
2021/07/15 14:08:20;;;;;;;51.20;26.63;;;;;;;;;;5009680;28;20507;-52
2021/07/15 14:10:47;;;;;;;44.55;26.20;;;;;;;;;;5009733;28;20099;-53
2021/07/15 14:13:14;;;;;;;41.15;24.88;;;;;;;;;;5009002;28;20042;-53
2021/07/15 14:15:41;;;;;;;50.17;25.88;;;;;;;;;;5006237;28;20048;-53
2021/07/15 14:18:09;;;;;;;42.03;24.67;;;;;;;;;;5009411;28;20068;-53
2021/07/15 14:20:36;;;;;;;37.63;23.75;;;;;;;;;;5007571;28;20136;-51
2021/07/15 14:23:03;;;;;;;45.35;27.42;;;;;;;;;;5009212;28;20634;-51
2021/07/15 14:25:29;;;;;;;44.55;25.90;;;;;;;;;;5006295;28;20146;-54
2021/07/15 14:27:55;;;;;;;40.58;24.58;;;;;;;;;;5008708;28;20064;-55
2021/07/15 14:30:24;;;;;;;44.15;25.52;;;;;;;;;;5009835;28;20041;-52